sensor_id;sensor_type;location;lat;lon;timestamp;pressure;altitude;pressure_sealevel;temperature;humidity
65175;BME280;51761;42.126;24.752;2023-02-21T00:01:13;99885.84;;;10.52;40.35
65175;BME280;51761;42.126;24.752;2023-02-21T00:03:58;99880.28;;;10.48;40.35
65175;BME280;51761;42.126;24.752;2023-02-21T00:06:44;99876.25;;;10.53;40.22
65175;BME280;51761;42.126;24.752;2023-02-21T00:09:28;99878.28;;;10.49;40.25
65175;BME280;51761;42.126;24.752;2023-02-21T00:12:12;99860.88;;;10.34;40.26
65175;BME280;51761;42.126;24.752;2023-02-21T00:14:56;99873.13;;;10.47;40.20
65175;BME280;51761;42.126;24.752;2023-02-21T00:17:40;99872.28;;;10.50;39.74
65175;BME280;51761;42.126;24.752;2023-02-21T00:20:24;99875.44;;;10.52;39.79
65175;BME280;51761;42.126;24.752;2023-02-21T00:23:08;99873.00;;;10.58;39.87
65175;BME280;51761;42.126;24.752;2023-02-21T00:25:52;99853.91;;;10.53;38.96
65175;BME280;51761;42.126;24.752;2023-02-21T00:28:37;99869.03;;;10.55;39.32
65175;BME280;51761;42.126;24.752;2023-02-21T00:31:20;99876.16;;;10.60;39.28
65175;BME280;51761;42.126;24.752;2023-02-21T00:34:04;99862.56;;;10.62;39.34
65175;BME280;51761;42.126;24.752;2023-02-21T00:36:48;99826.88;;;10.46;39.08
65175;BME280;51761;42.126;24.752;2023-02-21T00:39:32;99837.84;;;10.60;39.06
65175;BME280;51761;42.126;24.752;2023-02-21T00:42:16;99858.94;;;10.65;38.92
65175;BME280;51761;42.126;24.752;2023-02-21T00:45:00;99828.34;;;10.54;38.92
65175;BME280;51761;42.126;24.752;2023-02-21T00:47:44;99847.44;;;10.59;39.29
65175;BME280;51761;42.126;24.752;2023-02-21T00:50:28;99820.47;;;10.46;38.92
65175;BME280;51761;42.126;24.752;2023-02-21T00:53:12;99822.41;;;10.52;38.92
65175;BME280;51761;42.126;24.752;2023-02-21T00:55:56;99819.56;;;10.56;39.22
65175;BME280;51761;42.126;24.752;2023-02-21T00:58:40;99831.47;;;10.60;39.37
65175;BME280;51761;42.126;24.752;2023-02-21T01:01:23;99832.63;;;10.62;39.06
65175;BME280;51761;42.126;24.752;2023-02-21T01:04:07;99822.22;;;10.66;38.51
65175;BME280;51761;42.126;24.752;2023-02-21T01:06:51;99830.44;;;10.77;38.85
65175;BME280;51761;42.126;24.752;2023-02-21T01:09:35;99804.25;;;10.67;38.38
65175;BME280;51761;42.126;24.752;2023-02-21T01:12:19;99812.53;;;10.74;38.61
65175;BME280;51761;42.126;24.752;2023-02-21T01:15:03;99814.91;;;10.76;38.04
65175;BME280;51761;42.126;24.752;2023-02-21T01:17:47;99811.19;;;10.86;38.12
65175;BME280;51761;42.126;24.752;2023-02-21T01:20:31;99799.16;;;10.89;37.88
65175;BME280;51761;42.126;24.752;2023-02-21T01:23:15;99780.56;;;10.79;38.15
65175;BME280;51761;42.126;24.752;2023-02-21T01:25:59;99757.38;;;10.82;38.20
65175;BME280;51761;42.126;24.752;2023-02-21T01:28:43;99756.94;;;10.83;37.70
65175;BME280;51761;42.126;24.752;2023-02-21T01:31:27;99775.22;;;10.88;37.94
65175;BME280;51761;42.126;24.752;2023-02-21T01:34:11;99779.19;;;10.90;37.93
65175;BME280;51761;42.126;24.752;2023-02-21T01:36:55;99774.38;;;10.91;37.99
65175;BME280;51761;42.126;24.752;2023-02-21T01:39:39;99755.41;;;10.79;38.55
65175;BME280;51761;42.126;24.752;2023-02-21T01:42:23;99766.13;;;10.84;38.11
65175;BME280;51761;42.126;24.752;2023-02-21T01:48:07;99768.47;;;10.85;38.17
65175;BME280;51761;42.126;24.752;2023-02-21T01:50:53;99772.22;;;10.75;38.35
65175;BME280;51761;42.126;24.752;2023-02-21T01:53:38;99744.06;;;10.63;38.53
65175;BME280;51761;42.126;24.752;2023-02-21T01:56:22;99759.78;;;10.80;38.60
65175;BME280;51761;42.126;24.752;2023-02-21T01:59:06;99740.16;;;10.57;38.81
65175;BME280;51761;42.126;24.752;2023-02-21T02:04:35;99763.97;;;10.65;38.78
65175;BME280;51761;42.126;24.752;2023-02-21T02:07:19;99744.03;;;10.66;39.04
65175;BME280;51761;42.126;24.752;2023-02-21T02:10:05;99761.53;;;10.70;38.84
65175;BME280;51761;42.126;24.752;2023-02-21T02:18:59;99727.41;;;10.56;39.08
65175;BME280;51761;42.126;24.752;2023-02-21T02:27:13;99724.56;;;10.59;39.12
65175;BME280;51761;42.126;24.752;2023-02-21T02:35:27;99718.66;;;10.54;39.17
65175;BME280;51761;42.126;24.752;2023-02-21T02:41:12;99708.38;;;10.47;39.44
65175;BME280;51761;42.126;24.752;2023-02-21T02:43:50;99714.75;;;10.48;39.81
65175;BME280;51761;42.126;24.752;2023-02-21T02:48:56;99707.16;;;10.48;40.11
65175;BME280;51761;42.126;24.752;2023-02-21T02:51:25;99706.16;;;10.35;40.51
65175;BME280;51761;42.126;24.752;2023-02-21T02:53:51;99702.94;;;10.37;40.13
65175;BME280;51761;42.126;24.752;2023-02-21T02:56:16;99702.09;;;10.40;39.89
65175;BME280;51761;42.126;24.752;2023-02-21T02:58:49;99702.19;;;10.33;40.01
65175;BME280;51761;42.126;24.752;2023-02-21T03:07:16;99694.78;;;10.23;40.52
65175;BME280;51761;42.126;24.752;2023-02-21T03:12:55;99694.19;;;10.05;40.38
65175;BME280;51761;42.126;24.752;2023-02-21T03:15:31;99696.94;;;10.08;40.30
65175;BME280;51761;42.126;24.752;2023-02-21T03:19:06;99705.72;;;10.07;40.63
65175;BME280;51761;42.126;24.752;2023-02-21T03:21:00;99704.41;;;10.15;40.31
65175;BME280;51761;42.126;24.752;2023-02-21T03:23:29;99702.44;;;10.15;40.47
65175;BME280;51761;42.126;24.752;2023-02-21T03:26:01;99702.06;;;10.13;40.53
65175;BME280;51761;42.126;24.752;2023-02-21T03:28:28;99675.56;;;9.95;40.23
65175;BME280;51761;42.126;24.752;2023-02-21T03:30:55;99708.50;;;10.10;40.63
65175;BME280;51761;42.126;24.752;2023-02-21T03:33:22;99704.56;;;10.04;40.58
65175;BME280;51761;42.126;24.752;2023-02-21T03:35:48;99707.59;;;10.17;40.83
65175;BME280;51761;42.126;24.752;2023-02-21T03:38:13;99702.91;;;10.10;40.96
65175;BME280;51761;42.126;24.752;2023-02-21T03:40:39;99691.41;;;10.05;40.76
65175;BME280;51761;42.126;24.752;2023-02-21T03:43:05;99718.34;;;10.18;40.24
65175;BME280;51761;42.126;24.752;2023-02-21T03:45:35;99691.28;;;10.15;39.95
65175;BME280;51761;42.126;24.752;2023-02-21T03:48:01;99692.47;;;10.14;39.88
65175;BME280;51761;42.126;24.752;2023-02-21T03:50:27;99699.59;;;10.19;39.93
65175;BME280;51761;42.126;24.752;2023-02-21T03:52:52;99722.75;;;10.46;39.83
65175;BME280;51761;42.126;24.752;2023-02-21T03:55:18;99723.22;;;10.41;39.55
65175;BME280;51761;42.126;24.752;2023-02-21T03:57:44;99722.19;;;10.58;39.60
65175;BME280;51761;42.126;24.752;2023-02-21T04:00:11;99702.91;;;10.40;39.50
65175;BME280;51761;42.126;24.752;2023-02-21T04:02:37;99707.53;;;10.50;39.33
65175;BME280;51761;42.126;24.752;2023-02-21T04:05:03;99724.47;;;10.66;39.78
65175;BME280;51761;42.126;24.752;2023-02-21T04:07:28;99716.75;;;10.74;39.48
65175;BME280;51761;42.126;24.752;2023-02-21T04:09:54;99711.66;;;10.69;39.08
65175;BME280;51761;42.126;24.752;2023-02-21T04:12:19;99698.78;;;10.75;39.21
65175;BME280;51761;42.126;24.752;2023-02-21T04:14:45;99702.22;;;10.86;38.54
65175;BME280;51761;42.126;24.752;2023-02-21T04:17:11;99708.53;;;10.90;38.50
65175;BME280;51761;42.126;24.752;2023-02-21T04:19:36;99714.13;;;10.90;38.69
65175;BME280;51761;42.126;24.752;2023-02-21T04:22:02;99687.91;;;10.84;38.71
65175;BME280;51761;42.126;24.752;2023-02-21T04:24:27;99707.66;;;10.96;38.88
65175;BME280;51761;42.126;24.752;2023-02-21T04:26:53;99688.41;;;10.75;38.61
65175;BME280;51761;42.126;24.752;2023-02-21T04:29:18;99683.16;;;10.81;38.79
65175;BME280;51761;42.126;24.752;2023-02-21T04:31:44;99711.66;;;10.95;38.66
65175;BME280;51761;42.126;24.752;2023-02-21T04:34:09;99718.38;;;10.98;38.75
65175;BME280;51761;42.126;24.752;2023-02-21T04:36:35;99722.34;;;11.00;38.67
65175;BME280;51761;42.126;24.752;2023-02-21T04:39:03;99720.69;;;11.02;38.70
65175;BME280;51761;42.126;24.752;2023-02-21T04:41:28;99712.31;;;11.02;38.38
65175;BME280;51761;42.126;24.752;2023-02-21T04:43:54;99722.72;;;11.02;38.39
65175;BME280;51761;42.126;24.752;2023-02-21T04:46:19;99715.72;;;10.91;38.56
65175;BME280;51761;42.126;24.752;2023-02-21T04:48:47;99723.72;;;10.89;38.81
65175;BME280;51761;42.126;24.752;2023-02-21T04:51:14;99719.28;;;10.91;38.58
65175;BME280;51761;42.126;24.752;2023-02-21T04:53:40;99732.25;;;11.04;38.36
65175;BME280;51761;42.126;24.752;2023-02-21T04:56:06;99731.50;;;11.00;38.06
65175;BME280;51761;42.126;24.752;2023-02-21T04:58:32;99730.66;;;11.03;38.13
65175;BME280;51761;42.126;24.752;2023-02-21T05:00:57;99729.03;;;11.06;38.40
65175;BME280;51761;42.126;24.752;2023-02-21T05:03:23;99735.53;;;10.99;38.07
65175;BME280;51761;42.126;24.752;2023-02-21T05:05:49;99714.00;;;10.97;38.11
65175;BME280;51761;42.126;24.752;2023-02-21T05:08:15;99717.97;;;10.99;38.04
65175;BME280;51761;42.126;24.752;2023-02-21T05:10:40;99725.19;;;10.97;38.08
65175;BME280;51761;42.126;24.752;2023-02-21T05:13:06;99723.63;;;10.96;38.54
65175;BME280;51761;42.126;24.752;2023-02-21T05:15:31;99744.38;;;10.95;38.59
65175;BME280;51761;42.126;24.752;2023-02-21T05:17:57;99721.47;;;10.80;38.28
65175;BME280;51761;42.126;24.752;2023-02-21T05:20:22;99740.91;;;10.87;38.70
65175;BME280;51761;42.126;24.752;2023-02-21T05:22:48;99739.03;;;10.81;38.76
65175;BME280;51761;42.126;24.752;2023-02-21T05:25:14;99747.13;;;10.72;39.17
65175;BME280;51761;42.126;24.752;2023-02-21T05:27:40;99743.19;;;10.69;39.51
65175;BME280;51761;42.126;24.752;2023-02-21T05:30:07;99752.44;;;10.63;38.77
65175;BME280;51761;42.126;24.752;2023-02-21T05:32:32;99723.81;;;10.55;39.34
65175;BME280;51761;42.126;24.752;2023-02-21T05:34:58;99744.53;;;10.58;38.91
65175;BME280;51761;42.126;24.752;2023-02-21T05:37:23;99736.09;;;10.61;38.83
65175;BME280;51761;42.126;24.752;2023-02-21T05:39:49;99756.69;;;10.74;39.02
65175;BME280;51761;42.126;24.752;2023-02-21T05:42:14;99746.38;;;10.68;39.26
65175;BME280;51761;42.126;24.752;2023-02-21T05:44:43;99761.25;;;10.88;38.95
65175;BME280;51761;42.126;24.752;2023-02-21T05:47:09;99749.34;;;10.84;39.29
65175;BME280;51761;42.126;24.752;2023-02-21T05:49:35;99733.84;;;10.79;38.64
65175;BME280;51761;42.126;24.752;2023-02-21T05:52:01;99769.53;;;10.95;38.83
65175;BME280;51761;42.126;24.752;2023-02-21T05:54:26;99736.38;;;10.97;38.41
65175;BME280;51761;42.126;24.752;2023-02-21T05:56:52;99764.00;;;11.17;38.47
65175;BME280;51761;42.126;24.752;2023-02-21T05:59:19;99762.13;;;11.34;40.72
65175;BME280;51761;42.126;24.752;2023-02-21T06:01:48;99763.53;;;11.45;38.73
65175;BME280;51761;42.126;24.752;2023-02-21T06:04:15;99736.41;;;11.42;39.45
65175;BME280;51761;42.126;24.752;2023-02-21T06:06:41;99765.13;;;11.69;38.60
65175;BME280;51761;42.126;24.752;2023-02-21T06:09:07;99758.13;;;11.81;37.86
65175;BME280;51761;42.126;24.752;2023-02-21T06:11:34;99753.44;;;11.97;37.94
65175;BME280;51761;42.126;24.752;2023-02-21T06:14:03;99741.56;;;11.90;37.47
65175;BME280;51761;42.126;24.752;2023-02-21T06:16:34;99765.56;;;12.10;37.20
65175;BME280;51761;42.126;24.752;2023-02-21T06:19:00;99735.47;;;12.14;36.71
65175;BME280;51761;42.126;24.752;2023-02-21T06:21:27;99737.69;;;12.42;36.28
65175;BME280;51761;42.126;24.752;2023-02-21T06:23:52;99760.66;;;13.08;35.46
65175;BME280;51761;42.126;24.752;2023-02-21T06:26:18;99766.38;;;13.52;34.88
65175;BME280;51761;42.126;24.752;2023-02-21T06:28:44;99757.09;;;13.55;34.58
65175;BME280;51761;42.126;24.752;2023-02-21T06:31:10;99755.03;;;13.56;34.94
65175;BME280;51761;42.126;24.752;2023-02-21T06:33:35;99759.09;;;13.71;35.06
65175;BME280;51761;42.126;24.752;2023-02-21T06:36:11;99763.72;;;13.77;35.14
65175;BME280;51761;42.126;24.752;2023-02-21T06:38:37;99760.81;;;13.81;34.83
65175;BME280;51761;42.126;24.752;2023-02-21T06:41:06;99747.19;;;13.95;34.33
65175;BME280;51761;42.126;24.752;2023-02-21T06:43:32;99738.16;;;14.44;33.88
65175;BME280;51761;42.126;24.752;2023-02-21T06:45:58;99735.06;;;14.67;33.56
65175;BME280;51761;42.126;24.752;2023-02-21T06:48:23;99731.03;;;15.18;45.18
65175;BME280;51761;42.126;24.752;2023-02-21T06:50:49;99742.03;;;15.63;44.84
65175;BME280;51761;42.126;24.752;2023-02-21T06:53:14;99743.25;;;15.74;40.48
65175;BME280;51761;42.126;24.752;2023-02-21T06:55:40;99759.19;;;15.56;37.47
65175;BME280;51761;42.126;24.752;2023-02-21T06:58:05;99753.84;;;16.38;32.87
65175;BME280;51761;42.126;24.752;2023-02-21T07:00:31;99755.72;;;16.84;34.00
65175;BME280;51761;42.126;24.752;2023-02-21T07:02:56;99750.22;;;16.59;37.10
65175;BME280;51761;42.126;24.752;2023-02-21T07:05:22;99753.34;;;16.18;31.58
65175;BME280;51761;42.126;24.752;2023-02-21T07:07:47;99732.78;;;16.30;32.10
65175;BME280;51761;42.126;24.752;2023-02-21T07:10:13;99722.47;;;16.14;34.15
65175;BME280;51761;42.126;24.752;2023-02-21T07:12:38;99744.19;;;15.92;32.11
65175;BME280;51761;42.126;24.752;2023-02-21T07:15:05;99744.91;;;15.84;35.18
65175;BME280;51761;42.126;24.752;2023-02-21T07:17:31;99717.56;;;15.72;32.89
65175;BME280;51761;42.126;24.752;2023-02-21T07:19:56;99740.56;;;15.58;35.03
65175;BME280;51761;42.126;24.752;2023-02-21T07:22:22;99741.59;;;15.64;33.46
65175;BME280;51761;42.126;24.752;2023-02-21T07:24:53;99714.47;;;15.58;33.21
65175;BME280;51761;42.126;24.752;2023-02-21T07:27:19;99713.66;;;15.57;44.20
65175;BME280;51761;42.126;24.752;2023-02-21T07:29:49;99711.03;;;15.75;33.24
65175;BME280;51761;42.126;24.752;2023-02-21T07:32:15;99714.44;;;15.70;33.63
65175;BME280;51761;42.126;24.752;2023-02-21T07:34:42;99732.09;;;15.71;35.92
65175;BME280;51761;42.126;24.752;2023-02-21T07:37:08;99722.13;;;15.91;34.00
65175;BME280;51761;42.126;24.752;2023-02-21T07:39:33;99730.88;;;16.05;33.53
65175;BME280;51761;42.126;24.752;2023-02-21T07:41:59;99726.28;;;15.99;32.72
65175;BME280;51761;42.126;24.752;2023-02-21T07:44:24;99707.56;;;15.71;33.00
65175;BME280;51761;42.126;24.752;2023-02-21T07:46:50;99715.41;;;15.76;32.76
65175;BME280;51761;42.126;24.752;2023-02-21T07:49:15;99714.53;;;15.67;32.78
65175;BME280;51761;42.126;24.752;2023-02-21T07:51:41;99707.22;;;15.69;32.67
65175;BME280;51761;42.126;24.752;2023-02-21T07:54:06;99709.25;;;15.69;32.47
65175;BME280;51761;42.126;24.752;2023-02-21T07:56:32;99712.22;;;15.87;32.65
65175;BME280;51761;42.126;24.752;2023-02-21T07:58:57;99703.88;;;16.90;30.90
65175;BME280;51761;42.126;24.752;2023-02-21T08:01:25;99708.19;;;17.61;29.72
65175;BME280;51761;42.126;24.752;2023-02-21T08:03:50;99705.41;;;18.33;28.92
65175;BME280;51761;42.126;24.752;2023-02-21T08:06:16;99706.72;;;18.82;28.41
65175;BME280;51761;42.126;24.752;2023-02-21T08:08:43;99706.63;;;19.41;28.08
65175;BME280;51761;42.126;24.752;2023-02-21T08:11:09;99701.00;;;20.55;26.11
65175;BME280;51761;42.126;24.752;2023-02-21T08:13:34;99690.25;;;21.17;25.99
65175;BME280;51761;42.126;24.752;2023-02-21T08:16:00;99693.34;;;21.88;25.21
65175;BME280;51761;42.126;24.752;2023-02-21T08:18:25;99669.56;;;22.11;24.38
65175;BME280;51761;42.126;24.752;2023-02-21T08:20:52;99695.94;;;22.11;24.19
65175;BME280;51761;42.126;24.752;2023-02-21T08:23:18;99680.97;;;22.36;24.09
65175;BME280;51761;42.126;24.752;2023-02-21T08:25:45;99676.88;;;22.37;24.43
65175;BME280;51761;42.126;24.752;2023-02-21T08:28:10;99670.44;;;22.67;23.86
65175;BME280;51761;42.126;24.752;2023-02-21T08:30:36;99673.22;;;22.87;23.21
65175;BME280;51761;42.126;24.752;2023-02-21T08:33:02;99681.97;;;22.53;23.90
65175;BME280;51761;42.126;24.752;2023-02-21T08:35:27;99685.22;;;22.97;23.21
65175;BME280;51761;42.126;24.752;2023-02-21T08:37:53;99675.44;;;22.47;23.56
65175;BME280;51761;42.126;24.752;2023-02-21T08:40:26;99675.72;;;22.29;23.66
65175;BME280;51761;42.126;24.752;2023-02-21T08:42:53;99681.41;;;22.49;23.74
65175;BME280;51761;42.126;24.752;2023-02-21T08:45:21;99670.97;;;22.21;24.22
65175;BME280;51761;42.126;24.752;2023-02-21T08:47:47;99669.19;;;22.43;24.12
65175;BME280;51761;42.126;24.752;2023-02-21T08:50:13;99672.84;;;23.05;23.29
65175;BME280;51761;42.126;24.752;2023-02-21T08:52:39;99660.75;;;22.85;23.27
65175;BME280;51761;42.126;24.752;2023-02-21T08:55:06;99671.47;;;22.64;23.74
65175;BME280;51761;42.126;24.752;2023-02-21T08:57:31;99656.31;;;22.28;23.83
65175;BME280;51761;42.126;24.752;2023-02-21T09:00:00;99627.38;;;21.84;24.39
65175;BME280;51761;42.126;24.752;2023-02-21T09:02:25;99650.56;;;21.77;24.41
65175;BME280;51761;42.126;24.752;2023-02-21T09:04:53;99644.63;;;22.26;24.20
65175;BME280;51761;42.126;24.752;2023-02-21T09:07:20;99653.22;;;22.06;24.31
65175;BME280;51761;42.126;24.752;2023-02-21T09:09:47;99651.75;;;21.90;24.30
65175;BME280;51761;42.126;24.752;2023-02-21T09:12:13;99634.38;;;21.48;24.89
65175;BME280;51761;42.126;24.752;2023-02-21T09:14:41;99635.75;;;21.18;25.23
65175;BME280;51761;42.126;24.752;2023-02-21T09:17:09;99609.53;;;20.60;25.83
65175;BME280;51761;42.126;24.752;2023-02-21T09:19:35;99624.03;;;20.48;26.12
65175;BME280;51761;42.126;24.752;2023-02-21T09:22:01;99638.69;;;20.32;26.41
65175;BME280;51761;42.126;24.752;2023-02-21T09:24:29;99635.53;;;20.01;26.30
65175;BME280;51761;42.126;24.752;2023-02-21T09:26:55;99607.13;;;19.86;26.50
65175;BME280;51761;42.126;24.752;2023-02-21T09:29:31;99612.56;;;20.13;26.25
65175;BME280;51761;42.126;24.752;2023-02-21T09:31:56;99612.47;;;21.14;26.04
65175;BME280;51761;42.126;24.752;2023-02-21T09:36:48;99603.59;;;22.32;24.78
65175;BME280;51761;42.126;24.752;2023-02-21T09:39:15;99608.59;;;23.04;23.76
65175;BME280;51761;42.126;24.752;2023-02-21T09:41:41;99598.22;;;23.38;23.75
65175;BME280;51761;42.126;24.752;2023-02-21T09:44:14;99598.84;;;23.64;22.75
65175;BME280;51761;42.126;24.752;2023-02-21T09:49:14;99593.69;;;23.68;22.82
65175;BME280;51761;42.126;24.752;2023-02-21T09:51:42;99601.59;;;24.06;22.77
65175;BME280;51761;42.126;24.752;2023-02-21T09:54:28;99604.19;;;24.04;22.32
65175;BME280;51761;42.126;24.752;2023-02-21T09:56:56;99596.38;;;23.93;22.58
65175;BME280;51761;42.126;24.752;2023-02-21T09:59:24;99571.00;;;24.01;22.37
65175;BME280;51761;42.126;24.752;2023-02-21T10:02:09;99587.66;;;24.29;21.90
65175;BME280;51761;42.126;24.752;2023-02-21T10:13:23;99566.78;;;25.50;20.56
65175;BME280;51761;42.126;24.752;2023-02-21T10:19:03;99564.53;;;25.26;20.73
65175;BME280;51761;42.126;24.752;2023-02-21T10:21:35;99541.63;;;25.32;20.45
65175;BME280;51761;42.126;24.752;2023-02-21T10:24:13;99561.78;;;25.56;20.95
65175;BME280;51761;42.126;24.752;2023-02-21T10:26:43;99546.84;;;25.79;20.24
65175;BME280;51761;42.126;24.752;2023-02-21T10:29:20;99537.38;;;25.55;20.45
65175;BME280;51761;42.126;24.752;2023-02-21T10:31:47;99528.66;;;25.82;20.04
65175;BME280;51761;42.126;24.752;2023-02-21T10:34:24;99534.66;;;25.84;21.12
65175;BME280;51761;42.126;24.752;2023-02-21T10:36:51;99528.69;;;26.17;21.42
65175;BME280;51761;42.126;24.752;2023-02-21T10:39:34;99525.09;;;26.46;20.34
65175;BME280;51761;42.126;24.752;2023-02-21T10:42:02;99517.31;;;27.24;19.43
65175;BME280;51761;42.126;24.752;2023-02-21T10:44:31;99503.16;;;27.50;18.48
65175;BME280;51761;42.126;24.752;2023-02-21T10:49:46;99499.28;;;27.65;18.87
65175;BME280;51761;42.126;24.752;2023-02-21T10:52:18;99495.09;;;27.48;18.66
65175;BME280;51761;42.126;24.752;2023-02-21T10:55:06;99487.22;;;27.72;18.86
65175;BME280;51761;42.126;24.752;2023-02-21T10:57:40;99496.78;;;28.12;18.22
65175;BME280;51761;42.126;24.752;2023-02-21T11:00:07;99487.81;;;27.65;18.38
65175;BME280;51761;42.126;24.752;2023-02-21T11:02:43;99495.34;;;27.68;19.32
65175;BME280;51761;42.126;24.752;2023-02-21T11:05:19;99483.09;;;27.68;18.17
65175;BME280;51761;42.126;24.752;2023-02-21T11:07:58;99475.97;;;26.90;18.90
65175;BME280;51761;42.126;24.752;2023-02-21T11:13:12;99469.75;;;27.52;19.84
65175;BME280;51761;42.126;24.752;2023-02-21T11:15:38;99469.66;;;27.94;18.94
65175;BME280;51761;42.126;24.752;2023-02-21T11:18:15;99467.81;;;27.97;19.13
65175;BME280;51761;42.126;24.752;2023-02-21T11:20:44;99450.41;;;28.08;19.65
65175;BME280;51761;42.126;24.752;2023-02-21T11:25:44;99442.97;;;27.99;18.77
65175;BME280;51761;42.126;24.752;2023-02-21T11:28:16;99455.56;;;27.78;18.47
65175;BME280;51761;42.126;24.752;2023-02-21T11:30:50;99441.97;;;27.60;18.01
65175;BME280;51761;42.126;24.752;2023-02-21T11:33:27;99427.31;;;27.63;17.95
65175;BME280;51761;42.126;24.752;2023-02-21T11:36:09;99414.41;;;26.48;18.74
65175;BME280;51761;42.126;24.752;2023-02-21T11:38:59;99433.09;;;26.55;18.69
65175;BME280;51761;42.126;24.752;2023-02-21T11:41:29;99430.91;;;26.37;19.34
65175;BME280;51761;42.126;24.752;2023-02-21T11:43:56;99416.47;;;26.24;19.14
65175;BME280;51761;42.126;24.752;2023-02-21T11:46:43;99399.53;;;26.26;19.18
65175;BME280;51761;42.126;24.752;2023-02-21T11:54:07;99371.78;;;26.87;19.10
65175;BME280;51761;42.126;24.752;2023-02-21T12:01:35;99368.59;;;26.48;18.80
65175;BME280;51761;42.126;24.752;2023-02-21T12:04:33;99367.94;;;26.61;19.10
65175;BME280;51761;42.126;24.752;2023-02-21T12:07:14;99373.19;;;26.57;18.54
65175;BME280;51761;42.126;24.752;2023-02-21T12:10:01;99352.63;;;26.77;18.55
65175;BME280;51761;42.126;24.752;2023-02-21T12:12:36;99338.94;;;26.70;18.50
65175;BME280;51761;42.126;24.752;2023-02-21T12:23:33;99329.09;;;26.84;18.76
65175;BME280;51761;42.126;24.752;2023-02-21T12:32:03;99323.00;;;26.26;17.96
65175;BME280;51761;42.126;24.752;2023-02-21T12:48:33;99301.84;;;26.96;16.44
65175;BME280;51761;42.126;24.752;2023-02-21T12:51:21;99284.34;;;26.81;17.28
65175;BME280;51761;42.126;24.752;2023-02-21T12:54:05;99286.72;;;26.58;16.96
65175;BME280;51761;42.126;24.752;2023-02-21T12:56:43;99300.44;;;26.84;16.42
65175;BME280;51761;42.126;24.752;2023-02-21T12:59:37;99295.88;;;26.75;16.84
65175;BME280;51761;42.126;24.752;2023-02-21T13:02:26;99293.56;;;26.92;16.65
65175;BME280;51761;42.126;24.752;2023-02-21T13:04:59;99286.34;;;26.86;16.75
65175;BME280;51761;42.126;24.752;2023-02-21T13:07:43;99283.31;;;26.60;16.87
65175;BME280;51761;42.126;24.752;2023-02-21T13:10:17;99286.63;;;26.64;16.82
65175;BME280;51761;42.126;24.752;2023-02-21T13:12:50;99292.50;;;26.53;16.42
65175;BME280;51761;42.126;24.752;2023-02-21T13:15:19;99285.59;;;26.43;16.82
65175;BME280;51761;42.126;24.752;2023-02-21T13:20:41;99269.59;;;26.29;16.90
65175;BME280;51761;42.126;24.752;2023-02-21T13:23:27;99281.22;;;26.36;16.84
65175;BME280;51761;42.126;24.752;2023-02-21T13:28:41;99282.16;;;26.87;17.62
65175;BME280;51761;42.126;24.752;2023-02-21T13:31:18;99286.78;;;26.53;17.34
65175;BME280;51761;42.126;24.752;2023-02-21T13:33:50;99263.38;;;26.06;17.80
65175;BME280;51761;42.126;24.752;2023-02-21T13:41:32;99262.94;;;26.21;17.27
65175;BME280;51761;42.126;24.752;2023-02-21T13:44:00;99263.50;;;25.96;17.54
65175;BME280;51761;42.126;24.752;2023-02-21T13:57:41;99259.19;;;25.78;17.93
65175;BME280;51761;42.126;24.752;2023-02-21T14:13:47;99237.13;;;25.49;19.34
65175;BME280;51761;42.126;24.752;2023-02-21T14:16:36;99229.84;;;25.48;18.35
65175;BME280;51761;42.126;24.752;2023-02-21T14:19:16;99229.72;;;25.35;18.58
65175;BME280;51761;42.126;24.752;2023-02-21T14:24:24;99230.34;;;25.23;18.85
65175;BME280;51761;42.126;24.752;2023-02-21T14:37:35;99230.81;;;24.92;18.96
65175;BME280;51761;42.126;24.752;2023-02-21T15:05:13;99216.28;;;23.54;20.92
65175;BME280;51761;42.126;24.752;2023-02-21T15:07:57;99223.81;;;23.19;20.71
65175;BME280;51761;42.126;24.752;2023-02-21T15:10:30;99229.25;;;23.17;20.64
65175;BME280;51761;42.126;24.752;2023-02-21T15:13:02;99219.38;;;22.85;21.29
65175;BME280;51761;42.126;24.752;2023-02-21T15:15:40;99199.41;;;22.68;21.55
65175;BME280;51761;42.126;24.752;2023-02-21T15:18:11;99222.97;;;22.69;21.79
65175;BME280;51761;42.126;24.752;2023-02-21T15:20:41;99200.06;;;22.36;21.95
65175;BME280;51761;42.126;24.752;2023-02-21T15:23:19;99222.66;;;22.45;22.09
65175;BME280;51761;42.126;24.752;2023-02-21T15:25:53;99217.13;;;22.25;22.27
65175;BME280;51761;42.126;24.752;2023-02-21T15:28:22;99210.03;;;21.99;22.41
65175;BME280;51761;42.126;24.752;2023-02-21T15:31:06;99233.78;;;21.96;22.48
65175;BME280;51761;42.126;24.752;2023-02-21T15:33:34;99221.81;;;21.81;22.65
65175;BME280;51761;42.126;24.752;2023-02-21T15:36:06;99230.31;;;21.70;22.47
65175;BME280;51761;42.126;24.752;2023-02-21T15:39:04;99231.56;;;21.69;22.65
65175;BME280;51761;42.126;24.752;2023-02-21T15:41:38;99232.97;;;21.53;22.95
65175;BME280;51761;42.126;24.752;2023-02-21T15:44:17;99235.75;;;21.42;23.25
65175;BME280;51761;42.126;24.752;2023-02-21T15:51:48;99228.25;;;21.08;23.33
65175;BME280;51761;42.126;24.752;2023-02-21T15:54:25;99243.47;;;21.05;23.41
65175;BME280;51761;42.126;24.752;2023-02-21T15:59:36;99233.72;;;20.87;23.14
65175;BME280;51761;42.126;24.752;2023-02-21T16:02:14;99223.25;;;20.73;23.20
65175;BME280;51761;42.126;24.752;2023-02-21T16:04:45;99250.75;;;20.87;23.50
65175;BME280;51761;42.126;24.752;2023-02-21T16:07:32;99244.00;;;20.84;23.35
65175;BME280;51761;42.126;24.752;2023-02-21T16:10:04;99251.41;;;20.76;23.59
65175;BME280;51761;42.126;24.752;2023-02-21T16:12:34;99252.56;;;20.64;24.01
65175;BME280;51761;42.126;24.752;2023-02-21T16:17:34;99254.22;;;20.51;23.78
65175;BME280;51761;42.126;24.752;2023-02-21T16:20:13;99254.88;;;20.40;23.94